createdAt,value
2023-11-07T00:00:08.641Z,38.55
2023-11-07T00:02:36.942Z,38.47
2023-11-07T00:05:05.130Z,38.60
2023-11-07T00:07:32.637Z,38.43
2023-11-07T00:10:00.377Z,38.42
2023-11-07T00:12:27.870Z,38.32
2023-11-07T00:14:55.606Z,38.33
2023-11-07T00:17:23.400Z,38.25
2023-11-07T00:19:50.877Z,38.32
2023-11-07T00:22:18.354Z,38.18
2023-11-07T00:24:46.519Z,38.09
2023-11-07T00:27:14.504Z,37.84
2023-11-07T00:29:41.994Z,37.74
2023-11-07T00:32:09.768Z,37.57
2023-11-07T00:34:37.246Z,37.52
2023-11-07T00:37:04.808Z,37.36
2023-11-07T00:39:32.514Z,37.28
2023-11-07T00:41:59.976Z,37.31
2023-11-07T00:44:27.502Z,37.34
2023-11-07T00:46:55.370Z,37.39
2023-11-07T00:49:22.909Z,37.35
2023-11-07T00:51:50.419Z,37.33
2023-11-07T00:54:18.234Z,37.35
2023-11-07T00:56:45.798Z,37.42
2023-11-07T00:59:13.556Z,37.45
2023-11-07T01:01:41.931Z,37.50
2023-11-07T01:04:09.624Z,37.59
2023-11-07T01:06:37.280Z,37.63
2023-11-07T01:09:05.533Z,37.55
2023-11-07T01:11:33.251Z,37.66
2023-11-07T01:14:00.761Z,37.74
2023-11-07T01:16:28.522Z,37.72
2023-11-07T01:18:56.714Z,37.70
2023-11-07T01:21:24.896Z,37.72
2023-11-07T01:23:52.693Z,37.58
2023-11-07T01:26:20.753Z,37.48
2023-11-07T01:28:48.202Z,37.48
2023-11-07T01:31:15.980Z,37.42
2023-11-07T01:33:43.587Z,37.45
2023-11-07T01:36:11.811Z,37.38
2023-11-07T01:38:39.595Z,37.32
2023-11-07T01:41:07.142Z,37.18
2023-11-07T01:43:34.606Z,37.02
2023-11-07T01:46:04.158Z,36.96
2023-11-07T01:48:31.960Z,37.07
2023-11-07T01:50:59.795Z,36.88
2023-11-07T01:53:27.537Z,36.83
2023-11-07T01:55:55.240Z,36.76
2023-11-07T01:58:22.953Z,36.69
2023-11-07T02:00:54.856Z,36.59
2023-11-07T02:03:26.081Z,36.77
2023-11-07T02:05:53.749Z,36.80
2023-11-07T02:08:26.175Z,36.70
2023-11-07T02:10:53.917Z,36.77
2023-11-07T02:13:21.396Z,36.66
2023-11-07T02:15:48.903Z,36.71
2023-11-07T02:18:16.912Z,36.72
2023-11-07T02:20:46.599Z,36.69
2023-11-07T02:23:30.383Z,36.83
2023-11-07T02:25:58.225Z,36.72
2023-11-07T02:28:25.701Z,36.68
2023-11-07T02:30:53.913Z,36.70
2023-11-07T02:33:22.748Z,36.68
2023-11-07T02:35:50.349Z,36.66
2023-11-07T02:38:20.672Z,36.66
2023-11-07T02:40:50.324Z,36.62
2023-11-07T02:43:17.875Z,36.72
2023-11-07T02:45:45.444Z,36.52
2023-11-07T02:48:13.354Z,36.48
2023-11-07T02:50:41.515Z,36.49
2023-11-07T02:53:09.052Z,36.49
2023-11-07T02:55:36.861Z,36.54
2023-11-07T02:58:04.410Z,36.52
2023-11-07T03:00:33.590Z,36.45
2023-11-07T03:03:01.472Z,36.42
2023-11-07T03:05:29.043Z,36.38
2023-11-07T03:07:58.159Z,36.21
2023-11-07T03:10:27.005Z,36.23
2023-11-07T03:12:54.502Z,36.24
2023-11-07T03:15:21.955Z,36.21
2023-11-07T03:17:49.826Z,36.09
2023-11-07T03:20:17.947Z,36.05
2023-11-07T03:22:45.436Z,36.06
2023-11-07T03:25:13.168Z,36.02
2023-11-07T03:27:40.729Z,35.96
2023-11-07T03:30:08.948Z,35.89
2023-11-07T03:32:37.179Z,35.92
2023-11-07T03:35:05.813Z,36.04
2023-11-07T03:37:33.252Z,36.36
2023-11-07T03:40:01.255Z,36.38
2023-11-07T03:42:29.323Z,36.22
2023-11-07T03:44:56.766Z,35.96
2023-11-07T03:47:24.507Z,35.98
2023-11-07T03:49:53.020Z,35.65
2023-11-07T03:52:20.499Z,35.62
2023-11-07T03:54:49.158Z,35.49
2023-11-07T03:57:16.664Z,35.39
2023-11-07T03:59:47.032Z,35.42
2023-11-07T04:02:14.836Z,35.42
2023-11-07T04:04:42.601Z,35.41
2023-11-07T04:07:10.163Z,35.38
2023-11-07T04:09:38.146Z,35.37
2023-11-07T04:12:06.378Z,35.27
2023-11-07T04:14:34.556Z,35.29
2023-11-07T04:17:05.793Z,35.24
2023-11-07T04:19:34.805Z,35.24
2023-11-07T04:22:05.252Z,35.15
2023-11-07T04:24:33.064Z,35.29
2023-11-07T04:27:00.601Z,35.15
2023-11-07T04:29:28.110Z,35.13
2023-11-07T04:31:55.859Z,35.07
2023-11-07T04:34:23.344Z,35.01
2023-11-07T04:36:54.716Z,34.88
2023-11-07T04:39:22.482Z,34.82
2023-11-07T04:41:50.056Z,34.72
2023-11-07T04:44:17.542Z,34.69
2023-11-07T04:46:46.191Z,34.74
2023-11-07T04:49:15.245Z,34.67
2023-11-07T04:51:42.957Z,34.71
2023-11-07T04:54:10.756Z,34.78
2023-11-07T04:56:38.597Z,34.79
2023-11-07T04:59:06.143Z,34.78
2023-11-07T05:01:33.838Z,34.74
2023-11-07T05:04:01.668Z,34.78
2023-11-07T05:06:29.415Z,34.67
2023-11-07T05:08:57.237Z,34.56
2023-11-07T05:11:24.726Z,34.49
2023-11-07T05:13:52.170Z,34.52
2023-11-07T05:16:20.537Z,34.48
2023-11-07T05:18:49.117Z,34.48
2023-11-07T05:21:17.251Z,34.51
2023-11-07T05:23:45.037Z,34.48
2023-11-07T05:26:12.780Z,34.71
2023-11-07T05:28:40.238Z,34.55
2023-11-07T05:31:07.996Z,34.77
2023-11-07T05:33:38.439Z,34.45
2023-11-07T05:36:06.432Z,34.46
2023-11-07T05:38:35.280Z,34.47
2023-11-07T05:41:03.238Z,34.55
2023-11-07T05:43:30.736Z,34.53
2023-11-07T05:45:58.483Z,34.44
2023-11-07T05:48:26.294Z,34.59
2023-11-07T05:50:53.960Z,34.40
2023-11-07T05:53:21.711Z,34.40
2023-11-07T05:55:49.289Z,34.35
2023-11-07T05:58:16.768Z,34.20
2023-11-07T06:00:45.335Z,34.17
2023-11-07T06:03:15.064Z,34.20
2023-11-07T06:05:46.632Z,34.24
2023-11-07T06:08:14.784Z,34.24
2023-11-07T06:10:42.245Z,34.54
2023-11-07T06:13:09.826Z,34.37
2023-11-07T06:15:39.086Z,34.33
2023-11-07T06:18:07.778Z,34.41
2023-11-07T06:20:35.345Z,34.49
2023-11-07T06:23:03.159Z,34.44
2023-11-07T06:25:30.668Z,34.61
2023-11-07T06:27:59.001Z,34.75
2023-11-07T06:30:31.133Z,34.81
2023-11-07T06:32:59.792Z,34.86
2023-11-07T06:35:27.767Z,34.85
2023-11-07T06:37:55.351Z,34.69
2023-11-07T06:40:29.928Z,34.74
2023-11-07T06:43:01.804Z,34.63
2023-11-07T06:45:29.295Z,34.92
2023-11-07T06:48:01.116Z,35.00
2023-11-07T06:50:28.928Z,35.03
2023-11-07T06:52:56.516Z,35.29
2023-11-07T06:55:27.376Z,35.42
2023-11-07T06:57:56.678Z,35.52
2023-11-07T07:00:28.090Z,35.72
2023-11-07T07:02:57.554Z,35.88
2023-11-07T07:05:26.660Z,35.90
2023-11-07T07:07:55.696Z,35.92
2023-11-07T07:10:23.839Z,35.95
2023-11-07T07:12:52.313Z,36.01
2023-11-07T07:15:19.926Z,36.07
2023-11-07T07:17:48.426Z,36.26
2023-11-07T07:20:16.063Z,36.33
2023-11-07T07:22:44.521Z,36.47
2023-11-07T07:25:17.463Z,36.60
2023-11-07T07:27:49.170Z,36.62
2023-11-07T07:30:22.483Z,36.67
2023-11-07T07:32:52.917Z,36.70
2023-11-07T07:35:24.380Z,36.77
2023-11-07T07:37:53.199Z,36.80
2023-11-07T07:40:30.504Z,36.87
2023-11-07T07:43:10.520Z,36.84
2023-11-07T07:45:40.892Z,36.89
2023-11-07T07:48:08.760Z,36.93
2023-11-07T07:50:36.397Z,36.85
2023-11-07T07:53:07.723Z,36.89
2023-11-07T07:55:38.352Z,36.88
2023-11-07T07:58:08.009Z,36.89
2023-11-07T08:00:38.989Z,36.94
2023-11-07T08:03:11.307Z,36.95
2023-11-07T08:05:41.719Z,36.98
2023-11-07T08:08:10.809Z,37.04
2023-11-07T08:10:39.330Z,37.06
2023-11-07T08:13:08.670Z,37.10
2023-11-07T08:15:37.750Z,37.09
2023-11-07T08:18:08.439Z,37.22
2023-11-07T08:20:39.482Z,37.25
2023-11-07T08:23:07.253Z,37.15
2023-11-07T08:25:35.626Z,37.03
2023-11-07T08:28:09.239Z,37.23
2023-11-07T08:30:40.489Z,37.33
2023-11-07T08:33:09.038Z,37.59
2023-11-07T08:35:38.097Z,37.46
2023-11-07T08:38:05.787Z,37.38
2023-11-07T08:40:36.524Z,37.41
2023-11-07T08:43:04.777Z,37.34
2023-11-07T08:45:34.925Z,37.38
2023-11-07T08:48:04.488Z,37.48
2023-11-07T08:50:33.948Z,37.44
2023-11-07T08:53:06.556Z,37.55
2023-11-07T08:55:34.888Z,37.63
2023-11-07T08:58:04.694Z,37.61
2023-11-07T09:00:33.832Z,37.57
2023-11-07T09:03:01.800Z,37.54
2023-11-07T09:05:30.073Z,37.53
2023-11-07T09:07:57.821Z,37.61
2023-11-07T09:10:26.559Z,37.54
2023-11-07T09:12:54.028Z,37.40
2023-11-07T09:15:22.053Z,37.25
2023-11-07T09:17:50.295Z,37.39
2023-11-07T09:20:18.170Z,37.31
2023-11-07T09:22:45.745Z,37.27
2023-11-07T09:25:13.682Z,37.26
2023-11-07T09:27:41.342Z,37.25
2023-11-07T09:30:13.322Z,37.09
2023-11-07T09:32:43.429Z,37.16
2023-11-07T09:35:11.646Z,37.24
2023-11-07T09:37:42.402Z,37.32
2023-11-07T09:40:23.408Z,37.38
2023-11-07T09:42:53.282Z,37.50
2023-11-07T09:45:21.313Z,37.56
2023-11-07T09:47:50.406Z,37.58
2023-11-07T09:50:20.827Z,37.63
2023-11-07T09:52:49.742Z,37.70
2023-11-07T09:55:17.770Z,37.71
2023-11-07T09:58:01.499Z,37.69
2023-11-07T10:00:39.139Z,37.69
2023-11-07T10:03:07.736Z,37.73
2023-11-07T10:05:38.237Z,37.81
2023-11-07T10:08:06.123Z,37.83
2023-11-07T10:10:35.503Z,37.85
2023-11-07T10:13:12.907Z,37.92
2023-11-07T10:15:40.989Z,37.52
2023-11-07T10:18:13.161Z,37.40
2023-11-07T10:20:51.876Z,37.25
2023-11-07T10:23:19.793Z,37.28
2023-11-07T10:25:50.874Z,37.20
2023-11-07T10:28:21.284Z,37.46
2023-11-07T10:30:49.801Z,37.67
2023-11-07T10:33:29.182Z,37.79
2023-11-07T10:36:01.844Z,37.91
2023-11-07T10:38:32.116Z,37.92
2023-11-07T10:41:00.249Z,37.92
2023-11-07T10:43:56.160Z,37.94
2023-11-07T10:46:25.020Z,37.92
2023-11-07T10:48:53.332Z,37.94
2023-11-07T10:51:25.602Z,37.99
2023-11-07T10:53:53.385Z,37.94
2023-11-07T10:56:21.456Z,37.89
2023-11-07T10:59:00.132Z,37.65
2023-11-07T11:01:33.682Z,37.78
2023-11-07T11:04:01.910Z,37.93
2023-11-07T11:06:31.077Z,38.00
2023-11-07T11:08:58.852Z,38.00
2023-11-07T11:11:28.900Z,38.00
2023-11-07T11:13:56.964Z,38.03
2023-11-07T11:16:24.391Z,38.01
2023-11-07T11:18:58.279Z,38.03
2023-11-07T11:21:33.034Z,38.09
2023-11-07T11:24:19.359Z,38.11
2023-11-07T11:26:50.385Z,38.08
2023-11-07T11:29:27.847Z,38.11
2023-11-07T11:31:55.895Z,38.12
2023-11-07T11:34:27.019Z,38.14
2023-11-07T11:37:01.080Z,38.15
2023-11-07T11:39:31.844Z,38.23
2023-11-07T11:42:01.779Z,38.25
2023-11-07T11:44:30.630Z,38.26
2023-11-07T11:46:58.244Z,38.31
2023-11-07T11:49:26.055Z,38.32
2023-11-07T11:51:54.469Z,38.33
2023-11-07T11:54:28.126Z,38.42
2023-11-07T11:57:00.150Z,38.41
2023-11-07T11:59:31.440Z,38.48
2023-11-07T12:02:00.795Z,38.50
2023-11-07T12:04:30.160Z,38.50
2023-11-07T12:07:16.393Z,38.54
2023-11-07T12:09:46.091Z,38.54
2023-11-07T12:12:15.987Z,38.58
2023-11-07T12:15:01.378Z,38.63
2023-11-07T12:17:34.426Z,38.67
2023-11-07T12:20:12.959Z,38.67
2023-11-07T12:22:43.117Z,38.71
2023-11-07T12:25:15.430Z,38.74
2023-11-07T12:27:43.130Z,38.77
2023-11-07T12:30:15.817Z,38.79
2023-11-07T12:32:45.052Z,38.81
2023-11-07T12:35:19.457Z,38.81
2023-11-07T12:37:47.144Z,38.83
2023-11-07T12:40:15.001Z,38.85
2023-11-07T12:42:44.504Z,38.88
2023-11-07T12:45:12.027Z,38.90
2023-11-07T12:47:40.926Z,38.88
2023-11-07T12:50:10.968Z,38.90
2023-11-07T12:52:43.658Z,38.94
2023-11-07T12:55:18.733Z,39.00
2023-11-07T12:57:50.720Z,39.05
2023-11-07T13:00:19.453Z,39.08
2023-11-07T13:02:46.985Z,39.09
2023-11-07T13:05:17.660Z,39.09
2023-11-07T13:07:45.449Z,39.13
2023-11-07T13:10:16.868Z,39.13
2023-11-07T13:12:45.612Z,39.14
2023-11-07T13:15:14.837Z,39.13
2023-11-07T13:17:42.575Z,39.14
2023-11-07T13:20:12.259Z,39.14
2023-11-07T13:22:41.628Z,39.17
2023-11-07T13:25:10.675Z,39.15
2023-11-07T13:27:39.438Z,39.15
2023-11-07T13:30:10.196Z,39.15
2023-11-07T13:32:38.028Z,39.18
2023-11-07T13:35:05.973Z,39.19
2023-11-07T13:37:33.439Z,39.19
2023-11-07T13:40:02.177Z,39.21
2023-11-07T13:42:29.851Z,39.20
2023-11-07T13:44:57.420Z,39.23
2023-11-07T13:47:25.543Z,39.23
2023-11-07T13:49:52.991Z,39.24
2023-11-07T13:52:20.410Z,39.25
2023-11-07T13:54:48.082Z,39.26
2023-11-07T13:57:16.877Z,39.26
2023-11-07T13:59:44.412Z,39.28
2023-11-07T14:02:12.135Z,39.31
2023-11-07T14:04:40.035Z,39.35
2023-11-07T14:07:08.712Z,39.34
2023-11-07T14:09:37.743Z,39.37
2023-11-07T14:12:05.752Z,39.58
2023-11-07T14:14:33.835Z,39.55
2023-11-07T14:17:01.281Z,39.48
2023-11-07T14:19:29.402Z,39.37
2023-11-07T14:21:56.934Z,39.23
2023-11-07T14:24:24.389Z,39.20
2023-11-07T14:26:55.190Z,39.17
2023-11-07T14:29:38.469Z,39.05
2023-11-07T14:32:13.898Z,38.99
2023-11-07T14:34:42.643Z,38.88
2023-11-07T14:37:10.313Z,38.84
2023-11-07T14:39:38.080Z,38.75
2023-11-07T14:42:07.654Z,38.67
2023-11-07T14:44:35.846Z,38.55
2023-11-07T14:47:04.512Z,38.44
2023-11-07T14:49:32.232Z,38.35
2023-11-07T14:52:04.458Z,38.26
2023-11-07T14:54:32.262Z,38.15
2023-11-07T14:57:04.163Z,38.02
2023-11-07T14:59:34.146Z,37.91
2023-11-07T15:02:04.059Z,37.86
2023-11-07T15:04:33.012Z,37.83
2023-11-07T15:07:01.273Z,37.79
2023-11-07T15:09:28.873Z,37.80
2023-11-07T15:11:59.335Z,37.77
2023-11-07T15:14:27.200Z,37.76
2023-11-07T15:16:54.699Z,37.84
2023-11-07T15:19:22.276Z,37.85
2023-11-07T15:21:50.035Z,37.81
2023-11-07T15:24:19.013Z,37.82
2023-11-07T15:26:46.968Z,37.81
2023-11-07T15:29:14.670Z,37.78
2023-11-07T15:31:42.102Z,37.69
2023-11-07T15:34:10.319Z,37.68
2023-11-07T15:36:38.371Z,37.61
2023-11-07T15:39:13.496Z,37.63
2023-11-07T15:41:41.814Z,37.71
2023-11-07T15:44:09.586Z,37.82
2023-11-07T15:46:44.611Z,37.84
2023-11-07T15:49:12.542Z,37.82
2023-11-07T15:51:40.192Z,37.84
2023-11-07T15:54:07.867Z,37.85
2023-11-07T15:56:35.717Z,37.78
2023-11-07T15:59:05.475Z,37.96
2023-11-07T16:01:33.803Z,37.99
2023-11-07T16:04:01.652Z,37.99
2023-11-07T16:06:29.268Z,38.00
2023-11-07T16:08:57.101Z,38.04
2023-11-07T16:11:24.926Z,38.15
2023-11-07T16:13:52.686Z,38.19
2023-11-07T16:16:20.165Z,38.33
2023-11-07T16:18:53.470Z,38.35
2023-11-07T16:21:21.857Z,38.47
2023-11-07T16:23:49.969Z,38.48
2023-11-07T16:26:17.657Z,38.52
2023-11-07T16:28:45.159Z,38.58
2023-11-07T16:31:13.503Z,38.57
2023-11-07T16:33:41.188Z,38.57
2023-11-07T16:36:08.788Z,38.62
2023-11-07T16:38:36.805Z,38.65
2023-11-07T16:41:04.802Z,38.74
2023-11-07T16:43:32.323Z,38.79
2023-11-07T16:46:00.506Z,38.77
2023-11-07T16:48:27.994Z,38.82
2023-11-07T16:50:55.895Z,38.78
2023-11-07T16:53:23.682Z,38.94
2023-11-07T16:55:56.856Z,38.93
2023-11-07T16:58:25.922Z,39.12
2023-11-07T17:00:53.707Z,39.14
2023-11-07T17:03:21.476Z,39.16
2023-11-07T17:05:49.587Z,39.18
2023-11-07T17:08:17.836Z,39.22
2023-11-07T17:10:48.041Z,39.27
2023-11-07T17:13:15.701Z,39.29
2023-11-07T17:15:43.312Z,39.16
2023-11-07T17:18:11.606Z,39.37
2023-11-07T17:20:46.652Z,39.48
2023-11-07T17:23:16.010Z,39.51
2023-11-07T17:25:45.647Z,39.55
2023-11-07T17:28:13.829Z,39.58
2023-11-07T17:30:41.914Z,39.62
2023-11-07T17:33:10.185Z,39.60
2023-11-07T17:35:42.454Z,39.70
2023-11-07T17:38:11.219Z,39.72
2023-11-07T17:40:39.544Z,39.71
2023-11-07T17:43:08.708Z,39.76
2023-11-07T17:45:36.927Z,39.83
2023-11-07T17:48:05.465Z,39.83
2023-11-07T17:50:35.044Z,39.82
2023-11-07T17:53:04.108Z,39.89
2023-11-07T17:55:32.625Z,39.88
2023-11-07T17:58:01.572Z,39.90
2023-11-07T18:00:30.669Z,39.95
2023-11-07T18:03:00.388Z,39.91
2023-11-07T18:05:29.039Z,39.87
2023-11-07T18:07:57.539Z,39.94
2023-11-07T18:10:27.287Z,39.99
2023-11-07T18:12:55.713Z,40.01
2023-11-07T18:15:24.638Z,40.02
2023-11-07T18:17:53.299Z,40.02
2023-11-07T18:20:22.199Z,40.07
2023-11-07T18:22:52.775Z,40.11
2023-11-07T18:25:24.484Z,39.97
2023-11-07T18:27:52.550Z,39.42
2023-11-07T18:30:21.792Z,39.19
2023-11-07T18:32:52.734Z,39.21
2023-11-07T18:35:21.370Z,39.33
2023-11-07T18:37:52.051Z,39.46
2023-11-07T18:40:22.939Z,39.54
2023-11-07T18:42:51.015Z,39.63
2023-11-07T18:45:20.102Z,39.74
2023-11-07T18:47:49.463Z,39.79
2023-11-07T18:50:19.830Z,39.71
2023-11-07T18:52:51.228Z,39.65
2023-11-07T18:55:20.403Z,39.73
2023-11-07T18:57:49.897Z,39.77
2023-11-07T19:00:23.037Z,39.76
2023-11-07T19:02:53.037Z,39.78
2023-11-07T19:05:26.461Z,39.74
2023-11-07T19:07:58.003Z,39.80
2023-11-07T19:10:27.073Z,39.75
2023-11-07T19:12:56.384Z,39.74
2023-11-07T19:15:25.622Z,39.69
2023-11-07T19:17:58.897Z,39.71
2023-11-07T19:20:28.604Z,39.82
2023-11-07T19:22:58.207Z,39.95
2023-11-07T19:25:32.088Z,39.89
2023-11-07T19:28:02.458Z,39.82
2023-11-07T19:30:31.936Z,39.88
2023-11-07T19:33:01.483Z,40.00
2023-11-07T19:35:32.040Z,39.95
2023-11-07T19:38:06.995Z,40.01
2023-11-07T19:40:36.489Z,39.99
2023-11-07T19:43:05.655Z,40.20
2023-11-07T19:45:35.168Z,39.97
2023-11-07T19:48:04.183Z,40.05
2023-11-07T19:50:32.784Z,40.00
2023-11-07T19:53:09.148Z,40.09
2023-11-07T19:55:42.192Z,40.11
2023-11-07T19:58:11.952Z,40.00
2023-11-07T20:00:40.854Z,40.18
2023-11-07T20:03:10.615Z,39.98
2023-11-07T20:05:42.858Z,39.93
2023-11-07T20:08:15.006Z,40.15
2023-11-07T20:10:44.931Z,40.23
2023-11-07T20:13:14.248Z,40.29
2023-11-07T20:15:43.318Z,40.29
2023-11-07T20:18:13.354Z,40.09
2023-11-07T20:20:46.701Z,40.17
2023-11-07T20:23:16.605Z,40.05
2023-11-07T20:25:49.557Z,40.18
2023-11-07T20:28:20.512Z,40.06
2023-11-07T20:30:49.376Z,40.05
2023-11-07T20:33:18.380Z,40.03
2023-11-07T20:35:48.716Z,40.17
2023-11-07T20:38:20.225Z,40.17
2023-11-07T20:40:50.531Z,40.07
2023-11-07T20:43:19.612Z,39.90
2023-11-07T20:46:06.554Z,40.02
2023-11-07T20:48:39.668Z,40.11
2023-11-07T20:51:10.211Z,40.08
2023-11-07T20:53:39.902Z,40.16
2023-11-07T20:56:09.065Z,40.21
2023-11-07T20:58:37.797Z,40.18
2023-11-07T21:01:10.149Z,39.96
2023-11-07T21:03:38.729Z,40.02
2023-11-07T21:06:07.266Z,40.08
2023-11-07T21:08:36.259Z,40.10
2023-11-07T21:11:05.304Z,40.12
2023-11-07T21:13:33.166Z,40.28
2023-11-07T21:16:00.660Z,40.19
2023-11-07T21:18:30.396Z,40.21
2023-11-07T21:20:58.428Z,40.20
2023-11-07T21:23:25.872Z,40.03
2023-11-07T21:25:53.333Z,40.16
2023-11-07T21:28:21.046Z,40.22
2023-11-07T21:30:48.586Z,40.19
2023-11-07T21:33:16.634Z,40.20
2023-11-07T21:35:44.533Z,40.23
2023-11-07T21:38:12.367Z,40.13
2023-11-07T21:40:40.876Z,40.16
2023-11-07T21:43:09.581Z,40.17
2023-11-07T21:45:37.174Z,40.17
2023-11-07T21:48:08.533Z,40.20
2023-11-07T21:50:37.049Z,40.11
2023-11-07T21:53:04.520Z,40.10
2023-11-07T21:55:32.074Z,40.20
2023-11-07T21:58:00.691Z,40.23
2023-11-07T22:00:28.796Z,40.22
2023-11-07T22:02:56.785Z,40.11
2023-11-07T22:05:24.313Z,40.10
2023-11-07T22:07:52.830Z,40.12
2023-11-07T22:10:20.555Z,40.06
2023-11-07T22:12:48.443Z,40.11
2023-11-07T22:15:15.963Z,40.11
2023-11-07T22:17:44.067Z,40.04
2023-11-07T22:20:14.648Z,40.06
2023-11-07T22:22:43.884Z,40.06
2023-11-07T22:25:11.978Z,40.07
2023-11-07T22:27:39.846Z,40.01
2023-11-07T22:30:10.876Z,40.02
2023-11-07T22:32:42.088Z,40.09
2023-11-07T22:35:10.093Z,40.20
2023-11-07T22:37:38.774Z,40.09
2023-11-07T22:40:08.179Z,40.08
2023-11-07T22:42:38.260Z,40.02
2023-11-07T22:45:07.932Z,40.20
2023-11-07T22:47:35.386Z,40.13
2023-11-07T22:50:02.835Z,40.09
2023-11-07T22:52:30.575Z,40.22
2023-11-07T22:54:58.028Z,40.30
2023-11-07T22:57:25.915Z,40.12
2023-11-07T22:59:53.824Z,44.37
2023-11-07T23:02:21.589Z,40.59
2023-11-07T23:04:49.140Z,40.39
2023-11-07T23:07:17.820Z,40.38
2023-11-07T23:09:50.413Z,40.36
2023-11-07T23:12:18.382Z,40.43
2023-11-07T23:14:46.758Z,39.63
2023-11-07T23:17:14.820Z,39.24
2023-11-07T23:19:42.881Z,39.43
2023-11-07T23:22:13.487Z,39.79
2023-11-07T23:24:43.466Z,40.01
2023-11-07T23:27:15.261Z,40.04
2023-11-07T23:29:45.263Z,40.09
2023-11-07T23:32:13.474Z,40.10
2023-11-07T23:34:41.464Z,40.10
2023-11-07T23:37:09.561Z,40.14
2023-11-07T23:39:37.411Z,40.12
2023-11-07T23:42:05.471Z,40.13
2023-11-07T23:44:32.976Z,40.18
2023-11-07T23:47:00.711Z,40.17
2023-11-07T23:49:28.134Z,40.23
2023-11-07T23:51:55.763Z,40.19
2023-11-07T23:54:24.655Z,40.20
2023-11-07T23:56:52.103Z,40.26
2023-11-07T23:59:19.568Z,40.35
